Time;durP1;ratioP1;P1;durP2;ratioP2;P2;SDS_P1;SDS_P2;PMS_P1;PMS_P2;Temp;Humidity;BMP_temperature;BMP_pressure;BME280_temperature;BME280_humidity;BME280_pressure;Samples;Min_cycle;Max_cycle;Signal;HPM_P1;HPM_P2
2020/12/07 00:01:44;;;;;;;10.30;6.35;;;9.00;97.40;;;;;;5046029;28;20334;-66
2020/12/07 00:04:11;;;;;;;12.00;6.40;;;9.10;97.50;;;;;;5048751;28;20700;-68
2020/12/07 00:06:38;;;;;;;18.63;6.38;;;9.10;97.50;;;;;;5048650;28;20755;-67
2020/12/07 00:09:05;;;;;;;26.45;7.05;;;9.10;97.50;;;;;;5062487;28;20230;-67
2020/12/07 00:11:32;;;;;;;15.13;7.20;;;9.10;97.60;;;;;;5048370;28;20580;-68
2020/12/07 00:13:58;;;;;;;10.45;4.32;;;9.10;97.90;;;;;;5049548;28;20661;-68
2020/12/07 00:16:24;;;;;;;11.25;3.20;;;9.10;97.90;;;;;;5048275;28;20627;-67
2020/12/07 00:18:50;;;;;;;11.80;3.78;;;9.10;97.70;;;;;;5048807;28;20911;-68
2020/12/07 00:21:17;;;;;;;6.68;3.60;;;9.00;97.70;;;;;;5047981;28;20942;-67
2020/12/07 00:23:44;;;;;;;9.15;3.38;;;9.10;97.80;;;;;;5046641;28;20758;-67
2020/12/07 00:26:11;;;;;;;6.28;2.83;;;9.10;97.80;;;;;;5048919;28;20246;-67
2020/12/07 00:28:37;;;;;;;6.53;3.40;;;9.00;97.90;;;;;;5046270;28;20871;-67
2020/12/07 00:31:03;;;;;;;15.00;4.15;;;9.00;98.00;;;;;;5047995;28;20210;-68
2020/12/07 00:33:30;;;;;;;10.77;3.75;;;9.00;98.00;;;;;;5047363;28;20207;-67
2020/12/07 00:35:56;;;;;;;5.65;2.45;;;9.00;98.10;;;;;;5054038;28;20207;-67
2020/12/07 00:38:22;;;;;;;6.82;2.15;;;9.00;98.10;;;;;;5053959;28;20238;-68
2020/12/07 00:40:50;;;;;;;10.52;1.90;;;9.00;98.20;;;;;;5046906;28;20210;-69
2020/12/07 00:43:17;;;;;;;8.18;2.78;;;9.00;98.30;;;;;;5047150;28;20230;-69
2020/12/07 00:45:43;;;;;;;7.75;2.38;;;9.00;98.30;;;;;;5047388;28;20207;-69
2020/12/07 00:48:09;;;;;;;7.55;2.00;;;9.00;98.40;;;;;;5046550;28;20294;-67
2020/12/07 00:50:36;;;;;;;5.80;2.10;;;9.00;98.40;;;;;;5046556;28;20252;-68
2020/12/07 00:53:05;;;;;;;6.95;2.30;;;9.00;98.50;;;;;;5047053;28;20195;-69
2020/12/07 00:55:32;;;;;;;5.13;2.00;;;9.00;98.50;;;;;;5053111;28;20575;-67
2020/12/07 00:58:00;;;;;;;5.45;2.20;;;9.00;98.60;;;;;;5044709;28;20196;-68
2020/12/07 01:00:26;;;;;;;9.18;3.20;;;8.90;98.60;;;;;;5046463;28;20203;-68
2020/12/07 01:02:52;;;;;;;10.75;2.95;;;8.90;98.70;;;;;;5047171;28;20233;-67
2020/12/07 01:05:19;;;;;;;9.27;2.40;;;9.00;98.80;;;;;;5044042;28;20211;-68
2020/12/07 01:07:45;;;;;;;7.38;2.42;;;9.00;98.80;;;;;;5045885;28;20207;-67
2020/12/07 01:10:13;;;;;;;7.93;3.30;;;9.00;98.80;;;;;;5045508;28;20662;-68
2020/12/07 01:12:40;;;;;;;10.25;2.38;;;9.00;98.80;;;;;;5047284;28;20195;-67
2020/12/07 01:15:09;;;;;;;10.63;2.38;;;9.00;98.90;;;;;;5044681;28;20211;-68
2020/12/07 01:17:36;;;;;;;5.60;2.45;;;9.00;98.90;;;;;;5046542;28;20652;-67
2020/12/07 01:20:07;;;;;;;5.53;2.47;;;9.00;98.90;;;;;;5063305;28;20207;-68
2020/12/07 01:22:35;;;;;;;11.35;3.15;;;9.00;98.90;;;;;;5047909;28;20904;-68
2020/12/07 01:25:03;;;;;;;6.05;3.00;;;9.00;98.90;;;;;;5044221;28;20207;-68
2020/12/07 01:27:37;;;;;;;9.50;3.30;;;9.00;99.00;;;;;;5047459;28;20217;-68
2020/12/07 01:30:04;;;;;;;8.88;3.40;;;9.00;99.00;;;;;;5045339;28;20227;-68
2020/12/07 01:32:33;;;;;;;11.20;5.00;;;9.10;99.00;;;;;;5047081;28;20566;-67
2020/12/07 01:34:59;;;;;;;13.32;3.28;;;9.10;99.00;;;;;;5061618;28;20207;-68
2020/12/07 01:37:26;;;;;;;7.53;2.50;;;9.10;98.90;;;;;;5046603;28;20203;-68
2020/12/07 01:39:52;;;;;;;7.00;3.78;;;9.10;98.90;;;;;;5045568;28;20307;-69
2020/12/07 01:42:19;;;;;;;5.57;3.08;;;9.00;98.90;;;;;;5043850;28;20226;-68
2020/12/07 01:44:47;;;;;;;4.50;1.65;;;9.00;98.90;;;;;;5061567;28;20593;-67
2020/12/07 01:47:21;;;;;;;8.70;1.80;;;9.00;99.00;;;;;;5061787;28;20214;-67
2020/12/07 01:49:52;;;;;;;7.18;1.98;;;9.00;99.00;;;;;;5043831;28;20225;-66
2020/12/07 01:52:21;;;;;;;6.22;2.03;;;9.00;99.10;;;;;;5045761;28;20207;-68
2020/12/07 01:54:49;;;;;;;7.95;1.60;;;8.90;99.10;;;;;;5049259;28;20211;-68
2020/12/07 01:57:15;;;;;;;3.67;1.52;;;8.90;99.20;;;;;;5053588;28;20210;-67
2020/12/07 01:59:42;;;;;;;3.90;1.60;;;8.90;99.30;;;;;;5044415;28;20196;-68
2020/12/07 02:02:09;;;;;;;7.80;1.75;;;8.90;99.30;;;;;;5048936;28;20273;-68
2020/12/07 02:04:37;;;;;;;5.38;1.58;;;8.90;99.30;;;;;;5064189;28;20660;-67
2020/12/07 02:07:06;;;;;;;5.80;2.10;;;8.90;99.30;;;;;;5045255;28;20199;-67
2020/12/07 02:09:34;;;;;;;10.48;2.70;;;8.90;99.30;;;;;;5046587;28;20666;-68
2020/12/07 02:12:01;;;;;;;6.75;2.80;;;8.90;99.20;;;;;;5043357;28;20208;-67
2020/12/07 02:14:28;;;;;;;11.02;2.42;;;8.90;99.20;;;;;;5044250;28;20207;-68
2020/12/07 02:16:54;;;;;;;5.90;2.80;;;8.90;99.20;;;;;;5046448;28;20293;-67
2020/12/07 02:19:21;;;;;;;5.43;2.65;;;8.80;99.30;;;;;;5046322;28;20203;-67
2020/12/07 02:21:52;;;;;;;8.63;2.63;;;8.80;99.40;;;;;;5044086;28;20207;-67
2020/12/07 02:24:53;;;;;;;13.93;3.03;;;8.80;99.50;;;;;;5002083;28;20219;-67
2020/12/07 02:27:26;;;;;;;12.82;2.60;;;8.70;99.60;;;;;;5050500;28;20731;-67
2020/12/07 02:29:53;;;;;;;12.52;2.40;;;8.70;99.70;;;;;;5043083;28;20639;-68
2020/12/07 02:32:20;;;;;;;9.73;2.60;;;8.70;99.80;;;;;;5043962;28;20552;-67
2020/12/07 02:35:13;;;;;;;8.43;2.90;;;8.70;99.90;;;;;;5042997;28;20222;-67
2020/12/07 02:37:47;;;;;;;9.88;2.45;;;8.60;99.90;;;;;;5042987;28;20204;-67
2020/12/07 02:40:15;;;;;;;10.30;2.85;;;8.60;99.90;;;;;;5044094;28;20206;-68
2020/12/07 02:42:42;;;;;;;10.32;2.75;;;8.60;99.90;;;;;;5044071;28;20259;-68
2020/12/07 02:45:14;;;;;;;10.77;2.80;;;8.60;99.90;;;;;;5044303;28;20285;-67
2020/12/07 02:47:44;;;;;;;9.48;3.90;;;8.60;99.90;;;;;;5061571;28;20250;-67
2020/12/07 02:50:13;;;;;;;16.38;4.22;;;8.60;99.90;;;;;;5043856;28;20230;-68
2020/12/07 02:52:41;;;;;;;14.95;4.65;;;8.60;99.90;;;;;;5061528;28;20203;-69
2020/12/07 02:55:09;;;;;;;15.18;2.83;;;8.70;99.90;;;;;;5059634;28;20252;-67
2020/12/07 02:57:36;;;;;;;12.35;3.78;;;8.70;99.90;;;;;;5043345;28;20219;-68
2020/12/07 03:00:06;;;;;;;14.82;4.95;;;8.70;99.90;;;;;;5061664;28;20253;-69
2020/12/07 03:02:33;;;;;;;11.65;3.40;;;8.60;99.90;;;;;;5061988;28;20214;-70
2020/12/07 03:05:02;;;;;;;17.30;4.35;;;8.70;99.90;;;;;;5041176;28;20294;-68
2020/12/07 03:07:29;;;;;;;14.10;4.05;;;8.70;99.90;;;;;;5051031;28;20207;-68
2020/12/07 03:09:59;;;;;;;17.35;4.30;;;8.70;99.90;;;;;;5042952;28;20221;-68
2020/12/07 03:12:27;;;;;;;14.63;2.90;;;8.70;99.90;;;;;;5057390;28;20207;-68
2020/12/07 03:14:54;;;;;;;9.93;2.75;;;8.70;99.90;;;;;;5043212;28;20206;-67
2020/12/07 03:17:22;;;;;;;18.13;2.25;;;8.70;99.90;;;;;;5060182;28;20218;-68
2020/12/07 03:19:49;;;;;;;9.80;2.10;;;8.60;99.90;;;;;;5044030;28;20198;-69
2020/12/07 03:22:15;;;;;;;5.78;2.38;;;8.60;99.90;;;;;;5043665;28;20203;-68
2020/12/07 03:24:44;;;;;;;8.60;2.55;;;8.60;99.90;;;;;;5044041;28;20249;-69
2020/12/07 03:27:11;;;;;;;8.40;3.10;;;8.60;99.90;;;;;;5044379;28;20211;-67
2020/12/07 03:29:38;;;;;;;13.52;3.83;;;8.60;99.90;;;;;;5044667;28;20225;-67
2020/12/07 03:32:04;;;;;;;9.50;4.13;;;8.60;99.90;;;;;;5045238;28;20660;-69
2020/12/07 03:34:33;;;;;;;18.88;5.70;;;8.60;99.90;;;;;;5041607;28;20280;-68
2020/12/07 03:36:59;;;;;;;16.25;4.65;;;8.60;99.90;;;;;;5064149;28;20260;-68
2020/12/07 03:39:39;;;;;;;19.92;5.00;;;8.60;99.90;;;;;;5044320;28;20278;-68
2020/12/07 03:42:05;;;;;;;10.20;3.08;;;8.60;99.90;;;;;;5045565;28;20252;-67
2020/12/07 03:44:32;;;;;;;15.73;3.45;;;8.60;99.90;;;;;;5043622;28;20934;-68
2020/12/07 03:46:59;;;;;;;20.05;4.65;;;8.60;99.90;;;;;;5043679;28;20522;-68
2020/12/07 03:49:27;;;;;;;11.68;4.40;;;8.60;99.90;;;;;;5059793;28;20217;-68
2020/12/07 03:51:55;;;;;;;11.43;4.30;;;8.60;99.90;;;;;;5043187;28;20664;-68
2020/12/07 03:54:23;;;;;;;13.15;3.00;;;8.60;99.90;;;;;;5042634;28;20200;-67
2020/12/07 03:56:50;;;;;;;14.93;3.83;;;8.70;99.90;;;;;;5060800;28;20230;-66
2020/12/07 03:59:17;;;;;;;7.68;3.03;;;8.70;99.90;;;;;;5044294;28;20286;-68
2020/12/07 04:01:43;;;;;;;13.32;3.25;;;8.70;99.90;;;;;;5059589;28;20859;-67
2020/12/07 04:04:15;;;;;;;10.48;4.03;;;8.70;99.90;;;;;;5044789;28;20285;-68
2020/12/07 04:06:44;;;;;;;20.13;5.53;;;8.70;99.90;;;;;;5042721;28;20660;-69
2020/12/07 04:09:14;;;;;;;23.05;5.30;;;8.70;99.90;;;;;;5042459;28;20323;-68
2020/12/07 04:11:41;;;;;;;12.98;5.32;;;8.70;99.90;;;;;;5044665;28;20286;-67
2020/12/07 04:14:07;;;;;;;17.67;4.22;;;8.80;99.90;;;;;;5045052;28;20716;-68
2020/12/07 04:16:33;;;;;;;23.27;6.70;;;8.80;99.90;;;;;;5044097;28;20614;-67
2020/12/07 04:19:00;;;;;;;22.73;6.18;;;8.80;99.90;;;;;;5049159;28;20669;-68
2020/12/07 04:21:27;;;;;;;21.00;6.25;;;8.80;99.90;;;;;;5044907;28;20246;-67
2020/12/07 04:23:53;;;;;;;22.05;5.57;;;8.80;99.90;;;;;;5049123;28;20276;-68
2020/12/07 04:26:19;;;;;;;16.27;4.22;;;8.80;99.90;;;;;;5048734;28;20285;-68
2020/12/07 04:28:45;;;;;;;24.63;6.22;;;8.80;99.90;;;;;;5047272;28;20265;-69
2020/12/07 04:31:12;;;;;;;12.48;3.65;;;8.80;99.90;;;;;;5050324;28;20218;-68
2020/12/07 04:33:38;;;;;;;10.70;5.03;;;8.70;99.90;;;;;;5046629;28;20231;-67
2020/12/07 04:36:04;;;;;;;18.30;5.43;;;8.70;99.90;;;;;;5046518;28;20289;-68
2020/12/07 04:38:32;;;;;;;21.15;5.40;;;8.70;99.90;;;;;;5047731;28;20215;-68
2020/12/07 04:40:59;;;;;;;15.57;5.47;;;8.70;99.90;;;;;;5047373;28;20673;-68
2020/12/07 04:43:26;;;;;;;19.13;5.38;;;8.70;99.90;;;;;;5052180;28;20316;-67
2020/12/07 04:45:53;;;;;;;13.32;4.95;;;8.70;99.90;;;;;;5047356;28;20215;-67
2020/12/07 04:48:21;;;;;;;11.20;3.55;;;8.80;99.90;;;;;;5048333;28;20211;-67
2020/12/07 04:50:48;;;;;;;14.27;3.97;;;8.80;99.90;;;;;;5046572;28;20308;-68
2020/12/07 04:53:15;;;;;;;14.60;4.05;;;8.70;99.90;;;;;;5047915;28;20211;-67
2020/12/07 04:55:43;;;;;;;14.82;3.83;;;8.80;99.90;;;;;;5047746;28;20207;-68
2020/12/07 04:58:12;;;;;;;10.85;4.82;;;8.70;99.90;;;;;;5047347;28;20286;-68
2020/12/07 05:00:39;;;;;;;19.95;5.60;;;8.80;99.90;;;;;;5047512;28;20195;-67
2020/12/07 05:03:05;;;;;;;22.30;4.60;;;8.70;99.90;;;;;;5053634;28;20667;-67
2020/12/07 05:05:31;;;;;;;16.45;4.45;;;8.70;99.90;;;;;;5047255;28;20223;-68
2020/12/07 05:07:59;;;;;;;17.52;4.25;;;8.70;99.90;;;;;;5047411;28;20242;-68
2020/12/07 05:10:30;;;;;;;19.00;4.68;;;8.70;99.90;;;;;;5048207;28;20228;-68
2020/12/07 05:13:04;;;;;;;27.48;4.97;;;8.70;99.90;;;;;;5050806;28;20302;-66
2020/12/07 05:15:31;;;;;;;24.92;4.93;;;8.70;99.90;;;;;;5046167;28;20294;-67
2020/12/07 05:17:58;;;;;;;14.65;3.25;;;8.70;99.90;;;;;;5047463;28;20203;-67
2020/12/07 05:20:26;;;;;;;21.25;4.72;;;8.70;99.90;;;;;;5045768;28;20301;-68
2020/12/07 05:22:52;;;;;;;25.33;5.15;;;8.70;99.90;;;;;;5046529;28;20762;-67
2020/12/07 05:25:18;;;;;;;23.67;4.32;;;8.70;99.90;;;;;;5046284;28;20264;-68
2020/12/07 05:27:46;;;;;;;14.55;3.28;;;8.70;99.90;;;;;;5047474;28;21956;-67
2020/12/07 05:30:20;;;;;;;17.98;4.25;;;8.70;99.90;;;;;;5046052;28;20214;-67
2020/12/07 05:32:46;;;;;;;16.17;4.07;;;8.60;99.90;;;;;;5046082;28;20249;-68
2020/12/07 05:35:13;;;;;;;12.32;4.40;;;8.70;99.90;;;;;;5048466;28;20230;-68
2020/12/07 05:37:40;;;;;;;14.60;3.97;;;8.70;99.90;;;;;;5049526;28;20195;-68
2020/12/07 05:40:08;;;;;;;15.40;3.53;;;8.70;99.90;;;;;;5046444;28;20211;-68
2020/12/07 05:42:34;;;;;;;17.33;4.55;;;8.70;99.90;;;;;;5045880;28;20265;-68
2020/12/07 05:45:02;;;;;;;15.57;4.47;;;8.70;99.90;;;;;;5046558;28;20207;-68
2020/12/07 05:47:32;;;;;;;11.60;2.35;;;8.70;99.90;;;;;;5046325;28;20203;-67
2020/12/07 05:50:02;;;;;;;20.55;3.38;;;8.70;99.90;;;;;;5045696;28;20276;-67
2020/12/07 05:52:35;;;;;;;14.13;5.40;;;8.70;99.90;;;;;;5046758;28;20540;-67
2020/12/07 05:55:02;;;;;;;14.20;2.45;;;8.70;99.90;;;;;;5045753;28;20239;-67
2020/12/07 05:57:31;;;;;;;9.13;2.50;;;8.70;99.90;;;;;;5046140;28;20281;-68
2020/12/07 06:00:03;;;;;;;11.90;2.10;;;8.70;99.90;;;;;;5045951;28;20281;-66
2020/12/07 06:02:42;;;;;;;13.88;2.00;;;8.70;99.90;;;;;;5045010;28;20679;-67
2020/12/07 06:05:15;;;;;;;12.18;2.88;;;8.70;99.90;;;;;;5045355;28;20231;-67
2020/12/07 06:07:47;;;;;;;12.70;4.07;;;8.70;99.90;;;;;;5044892;28;20257;-68
2020/12/07 06:10:16;;;;;;;11.80;4.20;;;8.70;99.90;;;;;;5046140;28;20300;-66
2020/12/07 06:12:48;;;;;;;8.40;2.30;;;8.70;99.90;;;;;;5046974;28;20207;-67
2020/12/07 06:15:19;;;;;;;11.10;2.30;;;8.70;99.90;;;;;;5047498;28;20268;-67
2020/12/07 06:17:48;;;;;;;8.68;1.95;;;8.60;99.90;;;;;;5048696;28;20203;-67
2020/12/07 06:20:29;;;;;;;10.48;1.95;;;8.60;99.90;;;;;;5045568;28;20227;-66
2020/12/07 06:22:56;;;;;;;8.98;2.00;;;8.60;99.90;;;;;;5045924;28;20753;-64
2020/12/07 06:25:26;;;;;;;15.10;2.53;;;8.50;99.90;;;;;;5044628;28;20238;-65
2020/12/07 06:27:53;;;;;;;10.27;2.50;;;8.60;99.90;;;;;;5047962;28;20550;-67
2020/12/07 06:30:19;;;;;;;13.65;5.03;;;8.60;99.90;;;;;;5047286;28;20280;-66
2020/12/07 06:32:49;;;;;;;11.63;5.20;;;8.60;99.90;;;;;;5047898;28;20289;-67
2020/12/07 06:35:16;;;;;;;19.77;5.63;;;8.60;99.90;;;;;;5044831;28;20195;-67
2020/12/07 06:37:44;;;;;;;11.77;5.00;;;8.60;99.90;;;;;;5045860;28;20288;-67
2020/12/07 06:40:12;;;;;;;12.68;6.50;;;8.60;99.90;;;;;;5046683;28;20269;-66
2020/12/07 06:42:40;;;;;;;16.65;4.90;;;8.60;99.90;;;;;;5045993;28;20234;-66
2020/12/07 06:45:10;;;;;;;14.07;3.75;;;8.60;99.90;;;;;;5044648;28;20625;-67
2020/12/07 06:47:40;;;;;;;11.05;2.50;;;8.60;99.90;;;;;;5044338;28;20207;-66
2020/12/07 06:50:15;;;;;;;10.10;2.60;;;8.60;99.90;;;;;;5042594;28;20230;-68
2020/12/07 06:52:44;;;;;;;10.30;3.65;;;8.60;99.90;;;;;;5046217;28;20209;-67
2020/12/07 06:55:12;;;;;;;15.35;3.70;;;8.60;99.90;;;;;;5044351;28;20199;-65
2020/12/07 06:57:42;;;;;;;5.65;1.92;;;8.60;99.90;;;;;;5045838;28;20203;-71
2020/12/07 07:00:11;;;;;;;5.22;1.55;;;8.70;99.90;;;;;;5042420;28;20199;-64
2020/12/07 07:02:39;;;;;;;7.65;1.73;;;8.70;99.90;;;;;;5046053;28;20226;-65
2020/12/07 07:05:06;;;;;;;6.50;2.40;;;8.70;99.90;;;;;;5043988;28;20253;-66
2020/12/07 07:07:33;;;;;;;8.30;3.63;;;8.70;99.90;;;;;;5045199;28;20234;-65
2020/12/07 07:10:00;;;;;;;10.05;5.45;;;8.70;99.90;;;;;;5044783;28;20696;-67
2020/12/07 07:12:27;;;;;;;6.28;2.22;;;8.70;99.90;;;;;;5045098;28;20758;-65
2020/12/07 07:14:55;;;;;;;10.27;2.08;;;8.80;99.90;;;;;;5044000;28;20805;-65
2020/12/07 07:17:23;;;;;;;14.93;2.47;;;8.80;99.90;;;;;;5043825;28;20199;-66
2020/12/07 07:19:49;;;;;;;14.77;2.10;;;8.80;99.90;;;;;;5044898;28;20196;-63
2020/12/07 07:22:16;;;;;;;10.45;2.58;;;8.90;99.90;;;;;;5044432;28;20265;-65
2020/12/07 07:24:59;;;;;;;10.65;2.15;;;8.90;99.90;;;;;;5044639;28;20676;-65
2020/12/07 07:30:12;;;;;;;8.27;1.95;;;8.90;99.90;;;;;;5044860;28;20621;-66
2020/12/07 07:32:40;;;;;;;11.15;2.50;;;8.90;99.90;;;;;;5050926;28;20257;-70
2020/12/07 07:35:07;;;;;;;8.15;2.20;;;8.90;99.90;;;;;;5044815;28;20674;-65
2020/12/07 07:37:33;;;;;;;8.38;1.95;;;8.90;99.90;;;;;;5044716;28;20195;-68
2020/12/07 07:40:02;;;;;;;8.15;2.08;;;8.90;99.90;;;;;;5045733;28;20199;-64
2020/12/07 07:42:30;;;;;;;9.23;2.55;;;8.90;99.90;;;;;;5044660;28;20247;-67
2020/12/07 07:44:57;;;;;;;9.00;2.50;;;8.90;99.90;;;;;;5045930;28;20213;-68
2020/12/07 07:47:29;;;;;;;11.80;2.60;;;9.00;99.90;;;;;;5044386;28;20210;-66
2020/12/07 08:18:03;;;;;;;5.85;2.22;;;8.90;99.90;;;;;;5048169;28;20191;-69
2020/12/07 08:20:32;;;;;;;13.35;2.35;;;8.90;99.90;;;;;;5047891;28;20196;-68
2020/12/07 08:22:59;;;;;;;11.05;2.55;;;8.90;99.90;;;;;;5046687;28;20253;-69
2020/12/07 08:25:46;;;;;;;6.80;2.35;;;8.90;99.90;;;;;;5054036;28;20202;-70
2020/12/07 08:28:22;;;;;;;15.38;2.38;;;8.90;99.90;;;;;;5049327;28;20207;-69
2020/12/07 08:31:05;;;;;;;8.68;2.40;;;8.90;99.90;;;;;;5046632;28;20242;-66
2020/12/07 08:33:33;;;;;;;12.40;3.05;;;8.90;99.90;;;;;;5049476;28;20215;-68
2020/12/07 08:36:01;;;;;;;8.55;3.03;;;8.80;99.90;;;;;;5046667;28;20245;-67
2020/12/07 08:38:30;;;;;;;11.02;3.42;;;8.80;99.90;;;;;;5047885;28;20203;-71
2020/12/07 08:41:11;;;;;;;8.65;2.10;;;8.80;99.90;;;;;;5051034;28;20722;-72
2020/12/07 08:43:43;;;;;;;14.70;2.10;;;8.90;99.90;;;;;;5052703;28;20210;-65
2020/12/07 08:46:11;;;;;;;9.25;1.88;;;8.80;99.90;;;;;;5047888;28;20283;-66
2020/12/07 08:48:38;;;;;;;8.80;1.60;;;8.80;99.90;;;;;;5047161;28;20290;-65
2020/12/07 08:51:06;;;;;;;5.97;1.92;;;8.80;99.90;;;;;;5050480;28;20251;-69
2020/12/07 08:53:32;;;;;;;13.60;2.10;;;8.80;99.90;;;;;;5045652;28;20204;-63
2020/12/07 08:55:58;;;;;;;8.80;1.38;;;8.80;99.90;;;;;;5051899;28;20210;-65
2020/12/07 08:58:25;;;;;;;8.80;1.80;;;8.80;99.90;;;;;;5054671;28;20332;-72
2020/12/07 09:00:52;;;;;;;6.40;1.52;;;8.80;99.90;;;;;;5053291;28;20904;-66
2020/12/07 09:03:19;;;;;;;5.43;1.90;;;8.70;99.90;;;;;;5048027;28;20320;-67
2020/12/07 09:05:45;;;;;;;7.75;1.70;;;8.70;99.90;;;;;;5047911;28;20210;-72
2020/12/07 09:08:11;;;;;;;9.73;1.80;;;8.70;99.90;;;;;;5046967;28;20211;-67
2020/12/07 09:10:38;;;;;;;6.90;1.80;;;8.70;99.90;;;;;;5046796;28;20737;-67
2020/12/07 09:13:04;;;;;;;8.48;1.40;;;8.70;99.90;;;;;;5048251;28;20231;-68
2020/12/07 09:15:31;;;;;;;8.32;1.80;;;8.70;99.90;;;;;;5047458;28;20207;-64
2020/12/07 09:17:58;;;;;;;7.53;2.03;;;8.70;99.90;;;;;;5048007;28;20623;-65
2020/12/07 09:20:25;;;;;;;7.50;1.73;;;8.70;99.90;;;;;;5046014;28;20966;-67
2020/12/07 09:22:51;;;;;;;7.43;2.03;;;8.70;99.90;;;;;;5048409;28;20304;-69
2020/12/07 09:25:17;;;;;;;8.02;1.90;;;8.80;99.90;;;;;;5046690;28;20269;-67
2020/12/07 09:27:43;;;;;;;7.82;2.22;;;8.80;99.90;;;;;;5048899;28;20292;-65
2020/12/07 09:30:10;;;;;;;5.55;1.90;;;8.80;99.90;;;;;;5050608;28;20281;-66
2020/12/07 09:32:37;;;;;;;6.63;2.08;;;8.80;99.90;;;;;;5046809;28;20885;-65
2020/12/07 09:35:06;;;;;;;8.25;2.00;;;8.80;99.90;;;;;;5047410;28;20223;-64
2020/12/07 09:37:32;;;;;;;4.57;1.40;;;8.80;99.90;;;;;;5046903;28;20286;-67
2020/12/07 09:39:58;;;;;;;5.30;1.50;;;8.80;99.90;;;;;;5048446;28;20714;-65
2020/12/07 09:42:25;;;;;;;6.97;1.40;;;8.80;99.90;;;;;;5056302;28;20254;-71
2020/12/07 09:44:51;;;;;;;8.40;2.05;;;8.80;99.90;;;;;;5046817;28;20217;-73
2020/12/07 09:47:17;;;;;;;10.95;1.90;;;8.80;99.90;;;;;;5048520;28;20227;-66
2020/12/07 09:49:43;;;;;;;6.47;1.80;;;8.80;99.90;;;;;;5047778;28;20210;-66
2020/12/07 09:52:11;;;;;;;7.35;1.73;;;8.80;99.90;;;;;;5045378;28;20231;-68
2020/12/07 09:54:38;;;;;;;6.38;1.83;;;8.80;99.90;;;;;;5050175;28;20206;-68
2020/12/07 09:57:05;;;;;;;9.77;2.40;;;8.80;99.90;;;;;;5048378;28;20257;-68
2020/12/07 09:59:33;;;;;;;7.15;1.95;;;8.80;99.90;;;;;;5048569;28;20245;-70
2020/12/07 10:01:59;;;;;;;7.22;1.83;;;8.80;99.90;;;;;;5049688;28;20679;-68
2020/12/07 10:04:26;;;;;;;8.23;1.83;;;8.80;99.80;;;;;;5047993;28;20199;-67
2020/12/07 10:06:52;;;;;;;10.27;2.17;;;8.90;99.80;;;;;;5050136;28;20623;-67
2020/12/07 10:09:20;;;;;;;7.85;1.52;;;8.80;99.80;;;;;;5047737;28;20668;-67
2020/12/07 10:11:46;;;;;;;6.82;1.80;;;8.90;99.80;;;;;;5047047;28;20223;-66
2020/12/07 10:14:13;;;;;;;9.25;1.65;;;8.90;99.80;;;;;;5047131;28;20285;-66
2020/12/07 10:16:41;;;;;;;6.65;1.42;;;8.90;99.70;;;;;;5052310;28;20211;-66
2020/12/07 10:19:08;;;;;;;9.05;1.83;;;8.90;99.60;;;;;;5045421;28;20262;-66
2020/12/07 10:21:34;;;;;;;9.48;2.55;;;8.90;99.50;;;;;;5045867;28;20207;-65
2020/12/07 10:24:01;;;;;;;9.23;2.20;;;9.00;99.50;;;;;;5046063;28;20688;-66
2020/12/07 10:26:28;;;;;;;10.98;2.17;;;9.00;99.40;;;;;;5050914;28;20203;-67
2020/12/07 10:28:55;;;;;;;7.03;2.03;;;9.00;99.30;;;;;;5044887;28;20679;-67
2020/12/07 10:31:22;;;;;;;11.60;2.10;;;9.00;99.30;;;;;;5047239;28;20218;-73
2020/12/07 10:33:49;;;;;;;8.57;2.42;;;9.10;99.30;;;;;;5045829;28;20257;-66
2020/12/07 10:36:17;;;;;;;10.75;2.67;;;9.10;99.30;;;;;;5046911;28;20203;-65
2020/12/07 10:38:43;;;;;;;6.32;2.22;;;9.20;99.30;;;;;;5046677;28;20211;-66
2020/12/07 10:41:09;;;;;;;9.73;2.80;;;9.20;99.30;;;;;;5046688;28;20249;-65
2020/12/07 10:43:37;;;;;;;8.38;3.20;;;9.20;99.30;;;;;;5046142;28;20288;-65
2020/12/07 10:46:03;;;;;;;8.50;3.13;;;9.30;99.30;;;;;;5042961;28;20288;-66
2020/12/07 10:48:30;;;;;;;9.38;3.00;;;9.30;99.30;;;;;;5046179;28;20203;-70
2020/12/07 10:50:56;;;;;;;9.07;2.65;;;9.30;99.30;;;;;;5044802;28;20262;-71
2020/12/07 10:53:24;;;;;;;11.35;2.60;;;9.30;99.30;;;;;;5049819;28;20203;-66
2020/12/07 10:55:50;;;;;;;14.77;3.15;;;9.40;99.40;;;;;;5046189;28;20234;-67
2020/12/07 10:58:17;;;;;;;11.77;4.22;;;9.40;99.30;;;;;;5048213;28;20209;-66
2020/12/07 11:00:44;;;;;;;9.70;2.90;;;9.40;99.30;;;;;;5045486;28;20763;-75
2020/12/07 11:03:11;;;;;;;7.40;2.40;;;9.40;99.20;;;;;;5045615;28;20207;-68
2020/12/07 11:05:38;;;;;;;7.38;2.22;;;9.40;99.10;;;;;;5046094;28;20286;-69
2020/12/07 11:08:12;;;;;;;6.20;2.10;;;9.50;99.00;;;;;;5044432;28;20203;-66
2020/12/07 11:10:38;;;;;;;12.15;2.80;;;9.50;98.80;;;;;;5049907;28;20225;-70
2020/12/07 11:13:11;;;;;;;12.10;2.80;;;9.50;98.80;;;;;;5045435;28;20207;-64
2020/12/07 11:15:37;;;;;;;13.80;3.20;;;9.60;98.70;;;;;;5060135;28;20697;-69
2020/12/07 11:18:05;;;;;;;14.15;3.70;;;9.60;98.70;;;;;;5045429;28;20230;-66
2020/12/07 11:20:31;;;;;;;10.98;3.47;;;9.70;98.60;;;;;;5044899;28;20245;-66
2020/12/07 11:22:57;;;;;;;12.50;4.32;;;9.70;98.60;;;;;;5046808;28;20210;-66
2020/12/07 11:25:23;;;;;;;11.18;3.22;;;9.80;98.60;;;;;;5043697;28;20204;-66
2020/12/07 11:27:49;;;;;;;14.20;4.07;;;9.80;98.60;;;;;;5047079;28;20230;-66
2020/12/07 11:30:16;;;;;;;15.38;4.07;;;9.80;98.60;;;;;;5043849;28;20218;-66
2020/12/07 11:32:42;;;;;;;14.63;4.30;;;9.80;98.60;;;;;;5049904;28;20210;-66
2020/12/07 11:35:09;;;;;;;13.68;3.88;;;9.80;98.60;;;;;;5054967;28;20259;-66
2020/12/07 11:37:35;;;;;;;16.45;5.30;;;9.80;98.60;;;;;;5053848;28;20280;-66
2020/12/07 11:40:10;;;;;;;15.57;5.45;;;9.90;98.60;;;;;;5050395;28;20249;-66
2020/12/07 11:42:42;;;;;;;14.30;4.90;;;9.80;98.60;;;;;;5049692;28;20844;-65
2020/12/07 11:45:09;;;;;;;12.02;4.72;;;9.90;98.60;;;;;;5051183;28;20214;-65
2020/12/07 11:47:35;;;;;;;13.07;4.13;;;9.90;98.60;;;;;;5049626;28;20252;-66
2020/12/07 11:50:01;;;;;;;14.43;3.55;;;9.80;98.60;;;;;;5053967;28;20573;-66
2020/12/07 11:52:28;;;;;;;8.30;2.88;;;9.90;98.60;;;;;;5048547;28;20211;-66
2020/12/07 11:54:55;;;;;;;11.45;3.05;;;9.80;98.50;;;;;;5050510;28;20195;-66
2020/12/07 11:57:21;;;;;;;7.72;2.70;;;9.90;98.40;;;;;;5057472;28;20203;-66
2020/12/07 11:59:47;;;;;;;8.35;2.72;;;9.90;98.20;;;;;;5048949;28;20225;-65
2020/12/07 12:02:13;;;;;;;9.63;3.00;;;9.90;97.90;;;;;;5050586;28;20260;-66
2020/12/07 12:04:40;;;;;;;7.72;3.00;;;9.90;97.60;;;;;;5049304;28;20212;-66
2020/12/07 12:07:07;;;;;;;8.70;2.88;;;9.90;97.40;;;;;;5061291;28;20286;-65
2020/12/07 12:09:37;;;;;;;8.48;2.63;;;9.90;97.30;;;;;;5049431;28;20302;-66
2020/12/07 12:12:04;;;;;;;11.77;2.58;;;9.90;97.10;;;;;;5051749;28;20229;-66
2020/12/07 12:14:30;;;;;;;4.70;2.25;;;10.00;96.90;;;;;;5053290;28;20209;-66
2020/12/07 12:16:57;;;;;;;6.63;2.08;;;10.00;96.80;;;;;;5054599;28;20605;-66
2020/12/07 12:19:23;;;;;;;12.25;4.80;;;10.00;96.70;;;;;;5050176;28;20280;-65
2020/12/07 12:21:50;;;;;;;7.93;2.85;;;10.00;96.60;;;;;;5048156;28;20191;-66
2020/12/07 12:24:17;;;;;;;12.63;3.17;;;10.10;96.50;;;;;;5048891;28;20205;-64
2020/12/07 12:26:45;;;;;;;13.00;2.40;;;10.00;96.30;;;;;;5048586;28;20195;-65
2020/12/07 12:29:11;;;;;;;9.60;2.63;;;10.10;96.30;;;;;;5048605;28;20209;-65
2020/12/07 12:31:38;;;;;;;8.43;2.17;;;10.10;96.20;;;;;;5049135;28;20688;-65
2020/12/07 12:34:04;;;;;;;9.50;2.67;;;10.10;96.10;;;;;;5046573;28;20219;-65
2020/12/07 12:36:31;;;;;;;13.05;3.05;;;10.00;96.10;;;;;;5048771;28;20203;-66
2020/12/07 12:38:58;;;;;;;13.45;2.45;;;10.00;96.00;;;;;;5046330;28;20646;-65
2020/12/07 12:41:25;;;;;;;6.93;2.25;;;10.00;96.10;;;;;;5048722;28;20226;-65
2020/12/07 12:43:52;;;;;;;9.95;2.28;;;10.10;96.10;;;;;;5046307;28;20214;-67
2020/12/07 12:46:19;;;;;;;13.25;2.95;;;10.10;96.10;;;;;;5046595;28;20200;-66
2020/12/07 12:48:45;;;;;;;6.57;2.42;;;10.10;96.10;;;;;;5047814;28;20553;-76
2020/12/07 12:51:12;;;;;;;11.95;3.40;;;10.10;96.10;;;;;;5047503;28;20215;-67
2020/12/07 12:53:39;;;;;;;7.72;2.55;;;10.10;96.00;;;;;;5048835;28;20214;-69
2020/12/07 12:56:07;;;;;;;11.32;2.80;;;10.10;96.00;;;;;;5050594;28;20220;-76
2020/12/07 12:58:34;;;;;;;9.27;2.30;;;10.10;95.90;;;;;;5051003;28;20206;-67
2020/12/07 13:01:01;;;;;;;7.97;2.10;;;10.10;95.90;;;;;;5047414;28;20233;-70
2020/12/07 13:03:28;;;;;;;8.48;1.75;;;10.10;95.70;;;;;;5048687;28;20207;-71
2020/12/07 13:05:54;;;;;;;7.22;2.08;;;10.00;95.50;;;;;;5049707;28;20203;-63
2020/12/07 13:08:20;;;;;;;8.98;2.20;;;9.90;95.50;;;;;;5052059;28;20199;-66
2020/12/07 13:10:48;;;;;;;10.68;2.28;;;9.70;95.50;;;;;;5047169;28;20305;-67
2020/12/07 13:13:15;;;;;;;9.00;1.80;;;9.60;95.70;;;;;;5045046;28;20532;-67
2020/12/07 13:15:50;;;;;;;13.02;2.42;;;9.40;95.80;;;;;;5047641;28;20207;-69
2020/12/07 13:18:17;;;;;;;7.45;1.60;;;9.20;96.00;;;;;;5048057;28;20298;-68
2020/12/07 13:20:48;;;;;;;8.30;1.25;;;9.10;96.20;;;;;;5048376;28;20214;-66
2020/12/07 13:23:21;;;;;;;5.25;1.23;;;9.00;96.40;;;;;;5046542;28;20687;-65
2020/12/07 13:25:55;;;;;;;5.40;1.20;;;8.80;96.50;;;;;;5048633;28;20273;-66